Bouckville, New York
Current Conditions -  °F | °C
As of 2:53 AM on Wednesday 26 Nov 2014 (Local Time) from KRME Reporting Station
Overcast Overcast  
Wind Chill:   Ceiling: 3800
Heat Index:   Visibility: 10mi
Dew Point: -3°   Wind: 6mph
Humidity: 70%   Direction: 260°W
Pressure: 30.24"   Gusts: NA
Location:  42.89°N, 75.55°W
Report Text: KRME 260753Z AUTO 26005KT 10SM OVC038 02/M03 A3024 RMK AO2 SLP241 T00221028
Loading
Personal Weather Stations






























Interactive Weather Map New forecast layout! Learn more

10-Day Weather Forecast

Advertisements
Track Severe Weather on mobile